sensor_id;sensor_type;location;lat;lon;timestamp;P1;durP1;ratioP1;P2;durP2;ratioP2
37971;SDS011;23794;48.234;8.344;2023-05-07T00:01:43;4.78;;;2.33;;
37971;SDS011;23794;48.234;8.344;2023-05-07T00:04:09;5.85;;;2.45;;
37971;SDS011;23794;48.234;8.344;2023-05-07T00:06:37;4.70;;;2.20;;
37971;SDS011;23794;48.234;8.344;2023-05-07T00:09:03;2.88;;;1.95;;
37971;SDS011;23794;48.234;8.344;2023-05-07T00:11:32;2.55;;;2.05;;
37971;SDS011;23794;48.234;8.344;2023-05-07T00:14:02;3.72;;;2.60;;
37971;SDS011;23794;48.234;8.344;2023-05-07T00:16:29;6.20;;;2.10;;
37971;SDS011;23794;48.234;8.344;2023-05-07T00:18:55;6.32;;;2.47;;
37971;SDS011;23794;48.234;8.344;2023-05-07T00:21:24;6.65;;;2.67;;
37971;SDS011;23794;48.234;8.344;2023-05-07T00:23:53;7.43;;;2.53;;
37971;SDS011;23794;48.234;8.344;2023-05-07T00:26:20;6.90;;;1.90;;
37971;SDS011;23794;48.234;8.344;2023-05-07T00:28:49;6.80;;;2.50;;
37971;SDS011;23794;48.234;8.344;2023-05-07T00:31:16;5.15;;;2.40;;
37971;SDS011;23794;48.234;8.344;2023-05-07T00:33:43;4.30;;;2.45;;
37971;SDS011;23794;48.234;8.344;2023-05-07T00:36:09;4.05;;;2.05;;
37971;SDS011;23794;48.234;8.344;2023-05-07T00:38:36;3.88;;;2.55;;
37971;SDS011;23794;48.234;8.344;2023-05-07T00:41:06;5.95;;;2.50;;
37971;SDS011;23794;48.234;8.344;2023-05-07T00:46:06;5.82;;;2.28;;
37971;SDS011;23794;48.234;8.344;2023-05-07T00:48:33;8.20;;;2.38;;
37971;SDS011;23794;48.234;8.344;2023-05-07T00:51:00;5.53;;;2.38;;
37971;SDS011;23794;48.234;8.344;2023-05-07T00:53:26;4.63;;;1.90;;
37971;SDS011;23794;48.234;8.344;2023-05-07T00:55:53;4.35;;;2.47;;
37971;SDS011;23794;48.234;8.344;2023-05-07T00:58:21;6.88;;;2.53;;
37971;SDS011;23794;48.234;8.344;2023-05-07T01:00:47;4.65;;;2.50;;
37971;SDS011;23794;48.234;8.344;2023-05-07T01:03:14;3.08;;;2.22;;
37971;SDS011;23794;48.234;8.344;2023-05-07T01:05:41;3.22;;;2.05;;
37971;SDS011;23794;48.234;8.344;2023-05-07T01:08:10;6.13;;;3.10;;
37971;SDS011;23794;48.234;8.344;2023-05-07T01:10:37;6.13;;;2.22;;
37971;SDS011;23794;48.234;8.344;2023-05-07T01:13:09;5.15;;;2.67;;
37971;SDS011;23794;48.234;8.344;2023-05-07T01:15:37;4.28;;;2.67;;
37971;SDS011;23794;48.234;8.344;2023-05-07T01:18:04;2.80;;;1.95;;
37971;SDS011;23794;48.234;8.344;2023-05-07T01:20:33;3.15;;;2.20;;
37971;SDS011;23794;48.234;8.344;2023-05-07T01:23:00;8.80;;;2.58;;
37971;SDS011;23794;48.234;8.344;2023-05-07T01:25:29;3.83;;;2.30;;
37971;SDS011;23794;48.234;8.344;2023-05-07T01:27:59;3.80;;;2.67;;
37971;SDS011;23794;48.234;8.344;2023-05-07T01:30:30;3.65;;;2.33;;
37971;SDS011;23794;48.234;8.344;2023-05-07T01:33:00;5.97;;;2.85;;
37971;SDS011;23794;48.234;8.344;2023-05-07T01:35:36;4.78;;;2.70;;
37971;SDS011;23794;48.234;8.344;2023-05-07T01:38:06;4.82;;;2.80;;
37971;SDS011;23794;48.234;8.344;2023-05-07T01:40:34;4.13;;;2.10;;
37971;SDS011;23794;48.234;8.344;2023-05-07T01:43:01;6.25;;;3.13;;
37971;SDS011;23794;48.234;8.344;2023-05-07T01:45:30;5.13;;;3.00;;
37971;SDS011;23794;48.234;8.344;2023-05-07T01:47:58;3.85;;;2.65;;
37971;SDS011;23794;48.234;8.344;2023-05-07T01:50:25;2.35;;;1.95;;
37971;SDS011;23794;48.234;8.344;2023-05-07T01:52:52;3.00;;;2.70;;
37971;SDS011;23794;48.234;8.344;2023-05-07T01:55:19;5.07;;;2.42;;
37971;SDS011;23794;48.234;8.344;2023-05-07T01:57:46;4.70;;;2.25;;
37971;SDS011;23794;48.234;8.344;2023-05-07T02:00:12;5.07;;;2.28;;
37971;SDS011;23794;48.234;8.344;2023-05-07T02:02:43;4.27;;;2.70;;
37971;SDS011;23794;48.234;8.344;2023-05-07T02:05:21;4.72;;;2.58;;
37971;SDS011;23794;48.234;8.344;2023-05-07T02:07:55;5.03;;;2.58;;
37971;SDS011;23794;48.234;8.344;2023-05-07T02:10:21;3.78;;;2.65;;
37971;SDS011;23794;48.234;8.344;2023-05-07T02:12:48;6.15;;;2.50;;
37971;SDS011;23794;48.234;8.344;2023-05-07T02:15:15;3.95;;;2.30;;
37971;SDS011;23794;48.234;8.344;2023-05-07T02:18:00;4.68;;;2.05;;
37971;SDS011;23794;48.234;8.344;2023-05-07T02:20:28;4.80;;;2.58;;
37971;SDS011;23794;48.234;8.344;2023-05-07T02:22:55;3.25;;;2.40;;
37971;SDS011;23794;48.234;8.344;2023-05-07T02:25:23;4.72;;;2.70;;
37971;SDS011;23794;48.234;8.344;2023-05-07T02:27:49;4.93;;;2.90;;
37971;SDS011;23794;48.234;8.344;2023-05-07T02:30:18;5.82;;;3.03;;
37971;SDS011;23794;48.234;8.344;2023-05-07T02:32:51;5.65;;;3.15;;
37971;SDS011;23794;48.234;8.344;2023-05-07T02:35:18;4.10;;;2.53;;
37971;SDS011;23794;48.234;8.344;2023-05-07T02:37:44;7.18;;;2.55;;
37971;SDS011;23794;48.234;8.344;2023-05-07T02:40:12;5.05;;;2.38;;
37971;SDS011;23794;48.234;8.344;2023-05-07T02:42:39;4.22;;;2.80;;
37971;SDS011;23794;48.234;8.344;2023-05-07T02:45:06;8.20;;;3.10;;
37971;SDS011;23794;48.234;8.344;2023-05-07T02:47:34;4.65;;;3.00;;
37971;SDS011;23794;48.234;8.344;2023-05-07T02:50:02;6.10;;;2.85;;
37971;SDS011;23794;48.234;8.344;2023-05-07T02:52:29;5.40;;;3.25;;
37971;SDS011;23794;48.234;8.344;2023-05-07T02:54:56;5.88;;;3.97;;
37971;SDS011;23794;48.234;8.344;2023-05-07T02:57:23;5.38;;;2.75;;
37971;SDS011;23794;48.234;8.344;2023-05-07T02:59:49;4.13;;;2.40;;
37971;SDS011;23794;48.234;8.344;2023-05-07T03:02:18;4.80;;;2.80;;
37971;SDS011;23794;48.234;8.344;2023-05-07T03:04:46;4.00;;;2.80;;
37971;SDS011;23794;48.234;8.344;2023-05-07T03:07:12;6.20;;;2.75;;
37971;SDS011;23794;48.234;8.344;2023-05-07T03:09:40;4.07;;;2.70;;
37971;SDS011;23794;48.234;8.344;2023-05-07T03:12:07;3.55;;;2.33;;
37971;SDS011;23794;48.234;8.344;2023-05-07T03:14:34;5.85;;;3.17;;
37971;SDS011;23794;48.234;8.344;2023-05-07T03:17:00;7.07;;;3.58;;
37971;SDS011;23794;48.234;8.344;2023-05-07T03:19:27;6.32;;;3.05;;
37971;SDS011;23794;48.234;8.344;2023-05-07T03:21:54;4.72;;;3.38;;
37971;SDS011;23794;48.234;8.344;2023-05-07T03:24:21;5.35;;;3.33;;
37971;SDS011;23794;48.234;8.344;2023-05-07T03:26:48;4.05;;;2.70;;
37971;SDS011;23794;48.234;8.344;2023-05-07T03:29:15;3.30;;;2.35;;
37971;SDS011;23794;48.234;8.344;2023-05-07T03:31:41;9.38;;;3.67;;
37971;SDS011;23794;48.234;8.344;2023-05-07T03:34:08;5.60;;;3.05;;
37971;SDS011;23794;48.234;8.344;2023-05-07T03:36:35;4.85;;;2.92;;
37971;SDS011;23794;48.234;8.344;2023-05-07T03:39:03;6.05;;;2.97;;
37971;SDS011;23794;48.234;8.344;2023-05-07T03:41:36;5.32;;;2.88;;
37971;SDS011;23794;48.234;8.344;2023-05-07T03:44:03;3.50;;;2.92;;
37971;SDS011;23794;48.234;8.344;2023-05-07T03:46:30;4.68;;;3.35;;
37971;SDS011;23794;48.234;8.344;2023-05-07T03:48:57;3.17;;;2.45;;
37971;SDS011;23794;48.234;8.344;2023-05-07T03:51:24;3.75;;;3.08;;
37971;SDS011;23794;48.234;8.344;2023-05-07T03:53:51;4.00;;;3.25;;
37971;SDS011;23794;48.234;8.344;2023-05-07T03:56:24;4.45;;;2.80;;
37971;SDS011;23794;48.234;8.344;2023-05-07T03:58:54;5.03;;;2.70;;
37971;SDS011;23794;48.234;8.344;2023-05-07T04:01:21;4.60;;;3.05;;
37971;SDS011;23794;48.234;8.344;2023-05-07T04:03:48;4.50;;;3.08;;
37971;SDS011;23794;48.234;8.344;2023-05-07T04:06:15;6.20;;;3.20;;
37971;SDS011;23794;48.234;8.344;2023-05-07T04:08:46;5.15;;;3.58;;
37971;SDS011;23794;48.234;8.344;2023-05-07T04:11:13;4.18;;;3.20;;
37971;SDS011;23794;48.234;8.344;2023-05-07T04:13:39;4.88;;;3.33;;
37971;SDS011;23794;48.234;8.344;2023-05-07T04:16:08;5.35;;;3.60;;
37971;SDS011;23794;48.234;8.344;2023-05-07T04:18:37;4.38;;;2.92;;
37971;SDS011;23794;48.234;8.344;2023-05-07T04:21:04;4.97;;;3.20;;
37971;SDS011;23794;48.234;8.344;2023-05-07T04:23:34;4.88;;;2.70;;
37971;SDS011;23794;48.234;8.344;2023-05-07T04:26:03;3.15;;;2.63;;
37971;SDS011;23794;48.234;8.344;2023-05-07T04:28:35;3.80;;;3.00;;
37971;SDS011;23794;48.234;8.344;2023-05-07T04:31:02;4.57;;;3.10;;
37971;SDS011;23794;48.234;8.344;2023-05-07T04:33:31;5.95;;;3.20;;
37971;SDS011;23794;48.234;8.344;2023-05-07T04:35:58;7.15;;;2.95;;
37971;SDS011;23794;48.234;8.344;2023-05-07T04:38:31;3.90;;;2.42;;
37971;SDS011;23794;48.234;8.344;2023-05-07T04:41:04;4.18;;;3.08;;
37971;SDS011;23794;48.234;8.344;2023-05-07T04:43:34;3.42;;;2.72;;
37971;SDS011;23794;48.234;8.344;2023-05-07T04:46:01;4.63;;;3.60;;
37971;SDS011;23794;48.234;8.344;2023-05-07T04:48:29;6.20;;;3.10;;
37971;SDS011;23794;48.234;8.344;2023-05-07T04:50:57;5.10;;;3.33;;
37971;SDS011;23794;48.234;8.344;2023-05-07T04:53:23;3.83;;;3.15;;
37971;SDS011;23794;48.234;8.344;2023-05-07T04:55:55;5.63;;;3.28;;
37971;SDS011;23794;48.234;8.344;2023-05-07T04:58:25;4.90;;;3.35;;
37971;SDS011;23794;48.234;8.344;2023-05-07T05:00:52;4.57;;;3.70;;
37971;SDS011;23794;48.234;8.344;2023-05-07T05:03:19;3.95;;;3.15;;
37971;SDS011;23794;48.234;8.344;2023-05-07T05:05:46;5.05;;;3.30;;
37971;SDS011;23794;48.234;8.344;2023-05-07T05:08:14;5.30;;;3.60;;
37971;SDS011;23794;48.234;8.344;2023-05-07T05:10:41;9.25;;;2.92;;
37971;SDS011;23794;48.234;8.344;2023-05-07T05:13:10;4.45;;;3.40;;
37971;SDS011;23794;48.234;8.344;2023-05-07T05:15:39;5.13;;;3.25;;
37971;SDS011;23794;48.234;8.344;2023-05-07T05:18:06;4.78;;;2.90;;
37971;SDS011;23794;48.234;8.344;2023-05-07T05:20:33;3.50;;;2.65;;
37971;SDS011;23794;48.234;8.344;2023-05-07T05:23:00;4.25;;;2.67;;
37971;SDS011;23794;48.234;8.344;2023-05-07T05:25:29;4.85;;;3.17;;
37971;SDS011;23794;48.234;8.344;2023-05-07T05:27:57;5.55;;;3.17;;
37971;SDS011;23794;48.234;8.344;2023-05-07T05:30:24;5.38;;;3.15;;
37971;SDS011;23794;48.234;8.344;2023-05-07T05:32:51;6.50;;;2.83;;
37971;SDS011;23794;48.234;8.344;2023-05-07T05:35:21;8.10;;;3.33;;
37971;SDS011;23794;48.234;8.344;2023-05-07T05:37:48;4.07;;;2.65;;
37971;SDS011;23794;48.234;8.344;2023-05-07T05:40:16;4.50;;;3.00;;
37971;SDS011;23794;48.234;8.344;2023-05-07T05:42:43;4.20;;;3.15;;
37971;SDS011;23794;48.234;8.344;2023-05-07T05:45:10;3.22;;;2.92;;
37971;SDS011;23794;48.234;8.344;2023-05-07T05:47:38;3.75;;;2.80;;
37971;SDS011;23794;48.234;8.344;2023-05-07T05:50:06;4.25;;;3.28;;
37971;SDS011;23794;48.234;8.344;2023-05-07T05:52:34;4.78;;;3.10;;
37971;SDS011;23794;48.234;8.344;2023-05-07T05:55:01;4.57;;;3.08;;
37971;SDS011;23794;48.234;8.344;2023-05-07T05:57:28;4.28;;;3.20;;
37971;SDS011;23794;48.234;8.344;2023-05-07T05:59:55;5.60;;;3.90;;
37971;SDS011;23794;48.234;8.344;2023-05-07T06:02:23;4.93;;;3.08;;
37971;SDS011;23794;48.234;8.344;2023-05-07T06:04:50;3.45;;;2.88;;
37971;SDS011;23794;48.234;8.344;2023-05-07T06:07:18;3.22;;;2.70;;
37971;SDS011;23794;48.234;8.344;2023-05-07T06:09:45;4.80;;;3.03;;
37971;SDS011;23794;48.234;8.344;2023-05-07T06:12:12;3.78;;;2.20;;
37971;SDS011;23794;48.234;8.344;2023-05-07T06:14:38;5.68;;;3.22;;
37971;SDS011;23794;48.234;8.344;2023-05-07T06:17:05;4.50;;;3.65;;
37971;SDS011;23794;48.234;8.344;2023-05-07T06:19:33;4.10;;;3.05;;
37971;SDS011;23794;48.234;8.344;2023-05-07T06:21:59;6.03;;;2.60;;
37971;SDS011;23794;48.234;8.344;2023-05-07T06:24:29;3.60;;;2.90;;
37971;SDS011;23794;48.234;8.344;2023-05-07T06:26:56;5.45;;;2.92;;
37971;SDS011;23794;48.234;8.344;2023-05-07T06:29:25;3.17;;;2.63;;
37971;SDS011;23794;48.234;8.344;2023-05-07T06:31:52;3.70;;;2.60;;
37971;SDS011;23794;48.234;8.344;2023-05-07T06:34:21;4.65;;;3.03;;
37971;SDS011;23794;48.234;8.344;2023-05-07T06:36:48;4.60;;;2.78;;
37971;SDS011;23794;48.234;8.344;2023-05-07T06:39:24;3.38;;;2.38;;
37971;SDS011;23794;48.234;8.344;2023-05-07T06:41:51;5.20;;;2.60;;
37971;SDS011;23794;48.234;8.344;2023-05-07T06:44:25;3.60;;;2.78;;
37971;SDS011;23794;48.234;8.344;2023-05-07T06:47:05;3.78;;;2.97;;
37971;SDS011;23794;48.234;8.344;2023-05-07T06:49:32;5.38;;;3.20;;
37971;SDS011;23794;48.234;8.344;2023-05-07T06:51:59;4.32;;;2.85;;
37971;SDS011;23794;48.234;8.344;2023-05-07T06:54:26;2.83;;;2.05;;
37971;SDS011;23794;48.234;8.344;2023-05-07T06:56:53;7.68;;;4.10;;
37971;SDS011;23794;48.234;8.344;2023-05-07T06:59:21;3.80;;;2.90;;
37971;SDS011;23794;48.234;8.344;2023-05-07T07:01:48;4.60;;;2.60;;
37971;SDS011;23794;48.234;8.344;2023-05-07T07:04:15;4.75;;;2.53;;
37971;SDS011;23794;48.234;8.344;2023-05-07T07:06:45;3.83;;;2.80;;
37971;SDS011;23794;48.234;8.344;2023-05-07T07:09:13;4.60;;;2.50;;
37971;SDS011;23794;48.234;8.344;2023-05-07T07:11:40;3.63;;;2.25;;
37971;SDS011;23794;48.234;8.344;2023-05-07T07:14:07;3.40;;;2.58;;
37971;SDS011;23794;48.234;8.344;2023-05-07T07:16:40;3.45;;;2.55;;
37971;SDS011;23794;48.234;8.344;2023-05-07T07:19:07;4.13;;;2.10;;
37971;SDS011;23794;48.234;8.344;2023-05-07T07:21:34;3.97;;;2.78;;
37971;SDS011;23794;48.234;8.344;2023-05-07T07:24:01;3.65;;;2.53;;
37971;SDS011;23794;48.234;8.344;2023-05-07T07:26:28;5.63;;;3.05;;
37971;SDS011;23794;48.234;8.344;2023-05-07T07:28:55;5.65;;;2.70;;
37971;SDS011;23794;48.234;8.344;2023-05-07T07:31:22;6.18;;;2.85;;
37971;SDS011;23794;48.234;8.344;2023-05-07T07:33:49;5.60;;;2.85;;
37971;SDS011;23794;48.234;8.344;2023-05-07T07:36:18;3.72;;;2.50;;
37971;SDS011;23794;48.234;8.344;2023-05-07T07:38:45;3.53;;;2.95;;
37971;SDS011;23794;48.234;8.344;2023-05-07T07:41:13;3.55;;;2.20;;
37971;SDS011;23794;48.234;8.344;2023-05-07T07:43:40;3.05;;;2.30;;
37971;SDS011;23794;48.234;8.344;2023-05-07T07:46:07;4.65;;;2.67;;
37971;SDS011;23794;48.234;8.344;2023-05-07T07:48:34;3.10;;;2.47;;
37971;SDS011;23794;48.234;8.344;2023-05-07T07:51:01;4.85;;;2.00;;
37971;SDS011;23794;48.234;8.344;2023-05-07T07:53:28;6.43;;;2.10;;
37971;SDS011;23794;48.234;8.344;2023-05-07T07:55:55;3.15;;;2.40;;
37971;SDS011;23794;48.234;8.344;2023-05-07T07:58:27;2.95;;;2.25;;
37971;SDS011;23794;48.234;8.344;2023-05-07T08:00:54;2.90;;;2.20;;
37971;SDS011;23794;48.234;8.344;2023-05-07T08:03:23;4.85;;;3.40;;
37971;SDS011;23794;48.234;8.344;2023-05-07T08:05:53;4.97;;;2.85;;
37971;SDS011;23794;48.234;8.344;2023-05-07T08:08:20;3.20;;;2.67;;
37971;SDS011;23794;48.234;8.344;2023-05-07T08:10:48;4.28;;;2.33;;
37971;SDS011;23794;48.234;8.344;2023-05-07T08:13:24;6.68;;;2.67;;
37971;SDS011;23794;48.234;8.344;2023-05-07T08:15:51;5.22;;;2.63;;
37971;SDS011;23794;48.234;8.344;2023-05-07T08:18:19;5.78;;;2.50;;
37971;SDS011;23794;48.234;8.344;2023-05-07T08:20:45;3.90;;;2.30;;
37971;SDS011;23794;48.234;8.344;2023-05-07T08:23:18;3.20;;;2.30;;
37971;SDS011;23794;48.234;8.344;2023-05-07T08:25:45;3.15;;;2.65;;
37971;SDS011;23794;48.234;8.344;2023-05-07T08:28:12;3.35;;;1.73;;
37971;SDS011;23794;48.234;8.344;2023-05-07T08:30:40;3.17;;;1.55;;
37971;SDS011;23794;48.234;8.344;2023-05-07T08:33:08;3.10;;;1.85;;
37971;SDS011;23794;48.234;8.344;2023-05-07T08:35:35;3.78;;;1.80;;
37971;SDS011;23794;48.234;8.344;2023-05-07T08:38:04;3.03;;;1.98;;
37971;SDS011;23794;48.234;8.344;2023-05-07T08:40:33;2.67;;;1.83;;
37971;SDS011;23794;48.234;8.344;2023-05-07T08:43:06;3.33;;;1.95;;
37971;SDS011;23794;48.234;8.344;2023-05-07T08:45:36;3.17;;;1.50;;
37971;SDS011;23794;48.234;8.344;2023-05-07T08:48:10;2.70;;;1.83;;
37971;SDS011;23794;48.234;8.344;2023-05-07T08:50:44;2.72;;;1.90;;
37971;SDS011;23794;48.234;8.344;2023-05-07T08:53:11;3.30;;;1.75;;
37971;SDS011;23794;48.234;8.344;2023-05-07T08:55:39;3.85;;;1.88;;
37971;SDS011;23794;48.234;8.344;2023-05-07T08:58:06;2.80;;;1.88;;
37971;SDS011;23794;48.234;8.344;2023-05-07T09:00:36;3.23;;;1.80;;
37971;SDS011;23794;48.234;8.344;2023-05-07T09:03:06;1.95;;;1.63;;
37971;SDS011;23794;48.234;8.344;2023-05-07T09:05:35;3.60;;;1.90;;
37971;SDS011;23794;48.234;8.344;2023-05-07T09:08:05;3.03;;;1.70;;
37971;SDS011;23794;48.234;8.344;2023-05-07T09:10:34;2.13;;;1.67;;
37971;SDS011;23794;48.234;8.344;2023-05-07T09:13:03;4.25;;;1.80;;
37971;SDS011;23794;48.234;8.344;2023-05-07T09:15:30;3.60;;;1.60;;
37971;SDS011;23794;48.234;8.344;2023-05-07T09:18:01;3.15;;;1.65;;
37971;SDS011;23794;48.234;8.344;2023-05-07T09:20:32;3.42;;;1.60;;
37971;SDS011;23794;48.234;8.344;2023-05-07T09:23:00;4.85;;;1.80;;
37971;SDS011;23794;48.234;8.344;2023-05-07T09:25:28;3.20;;;1.60;;
37971;SDS011;23794;48.234;8.344;2023-05-07T09:27:58;4.05;;;1.80;;
37971;SDS011;23794;48.234;8.344;2023-05-07T09:30:30;2.83;;;1.75;;
37971;SDS011;23794;48.234;8.344;2023-05-07T09:32:59;5.43;;;1.67;;
37971;SDS011;23794;48.234;8.344;2023-05-07T09:35:27;2.55;;;1.80;;
37971;SDS011;23794;48.234;8.344;2023-05-07T09:38:00;3.60;;;1.63;;
37971;SDS011;23794;48.234;8.344;2023-05-07T09:40:31;2.50;;;1.80;;
37971;SDS011;23794;48.234;8.344;2023-05-07T09:43:09;3.20;;;1.70;;
37971;SDS011;23794;48.234;8.344;2023-05-07T09:45:41;4.57;;;2.28;;
37971;SDS011;23794;48.234;8.344;2023-05-07T09:48:10;4.68;;;1.65;;
37971;SDS011;23794;48.234;8.344;2023-05-07T09:50:43;2.70;;;1.65;;
37971;SDS011;23794;48.234;8.344;2023-05-07T09:53:22;2.10;;;1.42;;
37971;SDS011;23794;48.234;8.344;2023-05-07T09:55:49;3.47;;;1.65;;
37971;SDS011;23794;48.234;8.344;2023-05-07T09:58:18;1.80;;;1.50;;
37971;SDS011;23794;48.234;8.344;2023-05-07T10:00:46;6.45;;;1.60;;
37971;SDS011;23794;48.234;8.344;2023-05-07T10:03:16;1.52;;;1.20;;
37971;SDS011;23794;48.234;8.344;2023-05-07T10:05:54;4.40;;;1.50;;
37971;SDS011;23794;48.234;8.344;2023-05-07T10:08:21;2.33;;;1.80;;
37971;SDS011;23794;48.234;8.344;2023-05-07T10:10:52;2.45;;;1.92;;
37971;SDS011;23794;48.234;8.344;2023-05-07T10:13:22;1.90;;;1.42;;
37971;SDS011;23794;48.234;8.344;2023-05-07T10:15:53;2.75;;;1.50;;
37971;SDS011;23794;48.234;8.344;2023-05-07T10:18:23;1.83;;;1.20;;
37971;SDS011;23794;48.234;8.344;2023-05-07T10:21:22;3.65;;;1.90;;
37971;SDS011;23794;48.234;8.344;2023-05-07T10:24:15;4.55;;;1.20;;
37971;SDS011;23794;48.234;8.344;2023-05-07T10:26:52;2.30;;;1.38;;
37971;SDS011;23794;48.234;8.344;2023-05-07T10:29:29;2.88;;;1.65;;
37971;SDS011;23794;48.234;8.344;2023-05-07T10:34:39;7.22;;;2.10;;
37971;SDS011;23794;48.234;8.344;2023-05-07T10:37:10;2.35;;;1.55;;
37971;SDS011;23794;48.234;8.344;2023-05-07T10:39:38;2.75;;;1.88;;
37971;SDS011;23794;48.234;8.344;2023-05-07T10:42:09;2.03;;;1.10;;
37971;SDS011;23794;48.234;8.344;2023-05-07T10:44:40;1.98;;;1.40;;
37971;SDS011;23794;48.234;8.344;2023-05-07T10:47:13;3.13;;;1.10;;
37971;SDS011;23794;48.234;8.344;2023-05-07T10:52:20;3.42;;;2.22;;
37971;SDS011;23794;48.234;8.344;2023-05-07T10:55:19;3.47;;;1.83;;
37971;SDS011;23794;48.234;8.344;2023-05-07T11:01:07;4.20;;;2.60;;
37971;SDS011;23794;48.234;8.344;2023-05-07T11:04:12;4.72;;;2.70;;
37971;SDS011;23794;48.234;8.344;2023-05-07T11:15:07;3.50;;;1.85;;
37971;SDS011;23794;48.234;8.344;2023-05-07T11:17:54;13.85;;;2.03;;
37971;SDS011;23794;48.234;8.344;2023-05-07T11:26:30;2.15;;;1.80;;
37971;SDS011;23794;48.234;8.344;2023-05-07T11:29:11;3.42;;;2.00;;
37971;SDS011;23794;48.234;8.344;2023-05-07T11:31:50;6.85;;;2.08;;
37971;SDS011;23794;48.234;8.344;2023-05-07T11:34:21;3.53;;;2.42;;
37971;SDS011;23794;48.234;8.344;2023-05-07T11:36:51;5.45;;;2.30;;
37971;SDS011;23794;48.234;8.344;2023-05-07T11:39:28;3.90;;;2.10;;
37971;SDS011;23794;48.234;8.344;2023-05-07T11:41:59;4.70;;;2.10;;
37971;SDS011;23794;48.234;8.344;2023-05-07T11:44:40;7.93;;;2.53;;
37971;SDS011;23794;48.234;8.344;2023-05-07T11:47:10;7.75;;;2.28;;
37971;SDS011;23794;48.234;8.344;2023-05-07T11:49:37;7.53;;;2.80;;
37971;SDS011;23794;48.234;8.344;2023-05-07T11:52:03;3.58;;;1.90;;
37971;SDS011;23794;48.234;8.344;2023-05-07T11:54:35;5.88;;;1.70;;
37971;SDS011;23794;48.234;8.344;2023-05-07T11:57:03;2.35;;;1.52;;
37971;SDS011;23794;48.234;8.344;2023-05-07T11:59:29;3.15;;;1.50;;
37971;SDS011;23794;48.234;8.344;2023-05-07T12:01:57;3.35;;;1.75;;
37971;SDS011;23794;48.234;8.344;2023-05-07T12:04:24;4.68;;;1.65;;
37971;SDS011;23794;48.234;8.344;2023-05-07T12:06:54;2.50;;;1.50;;
37971;SDS011;23794;48.234;8.344;2023-05-07T12:09:22;3.22;;;1.48;;
37971;SDS011;23794;48.234;8.344;2023-05-07T12:11:48;4.38;;;1.50;;
37971;SDS011;23794;48.234;8.344;2023-05-07T12:14:15;4.88;;;1.80;;
37971;SDS011;23794;48.234;8.344;2023-05-07T12:16:42;5.03;;;1.60;;
37971;SDS011;23794;48.234;8.344;2023-05-07T12:19:11;2.33;;;1.35;;
37971;SDS011;23794;48.234;8.344;2023-05-07T12:21:41;3.50;;;0.95;;
37971;SDS011;23794;48.234;8.344;2023-05-07T12:24:08;3.50;;;1.15;;
37971;SDS011;23794;48.234;8.344;2023-05-07T12:26:38;3.47;;;1.10;;
37971;SDS011;23794;48.234;8.344;2023-05-07T12:29:06;5.95;;;1.48;;
37971;SDS011;23794;48.234;8.344;2023-05-07T12:31:33;3.75;;;1.38;;
37971;SDS011;23794;48.234;8.344;2023-05-07T12:34:00;5.57;;;1.73;;
37971;SDS011;23794;48.234;8.344;2023-05-07T12:36:27;3.10;;;1.00;;
37971;SDS011;23794;48.234;8.344;2023-05-07T12:39:03;1.92;;;0.98;;
37971;SDS011;23794;48.234;8.344;2023-05-07T12:41:35;2.45;;;1.02;;
37971;SDS011;23794;48.234;8.344;2023-05-07T12:44:04;4.35;;;1.23;;
37971;SDS011;23794;48.234;8.344;2023-05-07T12:46:31;5.63;;;3.22;;
37971;SDS011;23794;48.234;8.344;2023-05-07T12:48:58;7.82;;;3.72;;
37971;SDS011;23794;48.234;8.344;2023-05-07T12:51:25;2.65;;;1.10;;
37971;SDS011;23794;48.234;8.344;2023-05-07T12:53:51;2.28;;;1.10;;
37971;SDS011;23794;48.234;8.344;2023-05-07T12:56:22;3.97;;;1.33;;
37971;SDS011;23794;48.234;8.344;2023-05-07T12:58:49;4.60;;;1.38;;
37971;SDS011;23794;48.234;8.344;2023-05-07T13:01:16;4.68;;;1.33;;
37971;SDS011;23794;48.234;8.344;2023-05-07T13:03:48;3.70;;;1.10;;
37971;SDS011;23794;48.234;8.344;2023-05-07T13:06:16;1.73;;;0.80;;
37971;SDS011;23794;48.234;8.344;2023-05-07T13:08:43;1.88;;;1.00;;
37971;SDS011;23794;48.234;8.344;2023-05-07T13:11:10;2.08;;;0.75;;
37971;SDS011;23794;48.234;8.344;2023-05-07T13:13:38;1.50;;;0.60;;
37971;SDS011;23794;48.234;8.344;2023-05-07T13:16:07;2.17;;;0.90;;
37971;SDS011;23794;48.234;8.344;2023-05-07T13:18:35;0.98;;;0.65;;
37971;SDS011;23794;48.234;8.344;2023-05-07T13:21:02;3.53;;;1.63;;
37971;SDS011;23794;48.234;8.344;2023-05-07T13:23:29;7.90;;;2.53;;
37971;SDS011;23794;48.234;8.344;2023-05-07T13:25:56;2.95;;;1.50;;
37971;SDS011;23794;48.234;8.344;2023-05-07T13:28:26;13.23;;;6.30;;
37971;SDS011;23794;48.234;8.344;2023-05-07T13:30:53;3.35;;;1.23;;
37971;SDS011;23794;48.234;8.344;2023-05-07T13:33:21;1.75;;;0.82;;
37971;SDS011;23794;48.234;8.344;2023-05-07T13:35:47;3.47;;;1.20;;
37971;SDS011;23794;48.234;8.344;2023-05-07T13:38:14;3.65;;;1.52;;
37971;SDS011;23794;48.234;8.344;2023-05-07T13:40:42;1.45;;;1.15;;
37971;SDS011;23794;48.234;8.344;2023-05-07T13:43:09;2.50;;;1.27;;
37971;SDS011;23794;48.234;8.344;2023-05-07T13:45:38;2.63;;;1.48;;
37971;SDS011;23794;48.234;8.344;2023-05-07T13:48:05;2.95;;;1.55;;
37971;SDS011;23794;48.234;8.344;2023-05-07T13:50:32;2.28;;;1.25;;
37971;SDS011;23794;48.234;8.344;2023-05-07T13:52:58;2.45;;;1.30;;
37971;SDS011;23794;48.234;8.344;2023-05-07T13:55:25;3.80;;;2.25;;
37971;SDS011;23794;48.234;8.344;2023-05-07T13:57:58;2.60;;;1.25;;
37971;SDS011;23794;48.234;8.344;2023-05-07T14:00:26;2.10;;;1.00;;
37971;SDS011;23794;48.234;8.344;2023-05-07T14:02:54;4.03;;;1.58;;
37971;SDS011;23794;48.234;8.344;2023-05-07T14:05:22;2.63;;;1.30;;
37971;SDS011;23794;48.234;8.344;2023-05-07T14:07:50;1.48;;;1.17;;
37971;SDS011;23794;48.234;8.344;2023-05-07T14:10:18;4.47;;;1.38;;
37971;SDS011;23794;48.234;8.344;2023-05-07T14:12:45;1.95;;;1.10;;
37971;SDS011;23794;48.234;8.344;2023-05-07T14:15:13;3.83;;;2.35;;
37971;SDS011;23794;48.234;8.344;2023-05-07T14:17:40;3.25;;;1.13;;
37971;SDS011;23794;48.234;8.344;2023-05-07T14:20:07;1.33;;;1.10;;
37971;SDS011;23794;48.234;8.344;2023-05-07T14:22:34;2.20;;;1.17;;
37971;SDS011;23794;48.234;8.344;2023-05-07T14:25:01;1.55;;;1.17;;
37971;SDS011;23794;48.234;8.344;2023-05-07T14:27:32;3.22;;;1.50;;
37971;SDS011;23794;48.234;8.344;2023-05-07T14:29:59;2.28;;;1.48;;
37971;SDS011;23794;48.234;8.344;2023-05-07T14:32:25;1.95;;;1.30;;
37971;SDS011;23794;48.234;8.344;2023-05-07T14:34:52;3.42;;;1.73;;
37971;SDS011;23794;48.234;8.344;2023-05-07T14:37:22;2.72;;;1.45;;
37971;SDS011;23794;48.234;8.344;2023-05-07T14:39:50;2.10;;;1.38;;
37971;SDS011;23794;48.234;8.344;2023-05-07T14:42:17;3.45;;;1.73;;
37971;SDS011;23794;48.234;8.344;2023-05-07T14:44:45;3.05;;;1.45;;
37971;SDS011;23794;48.234;8.344;2023-05-07T14:47:12;4.13;;;1.95;;
37971;SDS011;23794;48.234;8.344;2023-05-07T14:49:39;6.97;;;1.60;;
37971;SDS011;23794;48.234;8.344;2023-05-07T14:52:07;3.47;;;1.48;;
37971;SDS011;23794;48.234;8.344;2023-05-07T14:54:35;8.13;;;2.70;;
37971;SDS011;23794;48.234;8.344;2023-05-07T14:57:04;5.63;;;2.58;;
37971;SDS011;23794;48.234;8.344;2023-05-07T14:59:32;5.70;;;2.45;;
37971;SDS011;23794;48.234;8.344;2023-05-07T15:01:58;5.00;;;2.65;;
37971;SDS011;23794;48.234;8.344;2023-05-07T15:04:25;4.85;;;2.40;;
37971;SDS011;23794;48.234;8.344;2023-05-07T15:06:52;4.05;;;2.00;;
37971;SDS011;23794;48.234;8.344;2023-05-07T15:09:20;4.72;;;2.92;;
37971;SDS011;23794;48.234;8.344;2023-05-07T15:11:46;3.00;;;2.00;;
37971;SDS011;23794;48.234;8.344;2023-05-07T15:14:13;2.42;;;1.40;;
37971;SDS011;23794;48.234;8.344;2023-05-07T15:16:39;2.28;;;1.60;;
37971;SDS011;23794;48.234;8.344;2023-05-07T15:19:06;2.97;;;1.75;;
37971;SDS011;23794;48.234;8.344;2023-05-07T15:21:33;2.42;;;1.52;;
37971;SDS011;23794;48.234;8.344;2023-05-07T15:24:01;2.50;;;1.30;;